Curlew, Iowa
Current Conditions -  °F | °C
As of 9:55 PM on Wednesday 22 Oct 2014 (Local Time) from KAXA Reporting Station
Overcast Overcast  
Wind Chill: 57°   Ceiling: 4200
Heat Index: 57°   Visibility: 10mi
Dew Point: 48°   Wind: 12mph
Humidity: 72%   Direction: 170°S
Pressure: 30.1"   Gusts: NA
Location:  42.98°N, 94.74°W
Report Text: KAXA 230255Z AUTO 17010KT 10SM OVC042 14/09 A3010 RMK AO2
Loading
Personal Weather Stations






























Interactive Weather Map
Tropical Storm Tracking
New forecast layout! Learn more

10-Day Weather Forecast

Advertisements
Track Severe Weather on mobile